sensor_id;sensor_type;location;lat;lon;timestamp;P1;durP1;ratioP1;P2;durP2;ratioP2
21741;SDS011;11033;47.490;11.116;2022-09-09T00:04:26;7.47;;;2.15;;
21741;SDS011;11033;47.490;11.116;2022-09-09T00:09:48;4.95;;;2.03;;
21741;SDS011;11033;47.490;11.116;2022-09-09T00:12:19;4.57;;;1.83;;
21741;SDS011;11033;47.490;11.116;2022-09-09T00:15:00;4.00;;;2.20;;
21741;SDS011;11033;47.490;11.116;2022-09-09T00:17:45;4.75;;;2.50;;
21741;SDS011;11033;47.490;11.116;2022-09-09T00:20:26;3.30;;;1.98;;
21741;SDS011;11033;47.490;11.116;2022-09-09T00:22:58;7.78;;;2.70;;
21741;SDS011;11033;47.490;11.116;2022-09-09T00:25:29;3.45;;;2.00;;
21741;SDS011;11033;47.490;11.116;2022-09-09T00:28:02;6.07;;;2.58;;
21741;SDS011;11033;47.490;11.116;2022-09-09T00:30:34;3.60;;;2.53;;
21741;SDS011;11033;47.490;11.116;2022-09-09T00:33:00;4.28;;;2.38;;
21741;SDS011;11033;47.490;11.116;2022-09-09T00:35:36;4.28;;;2.60;;
21741;SDS011;11033;47.490;11.116;2022-09-09T00:38:17;4.90;;;2.20;;
21741;SDS011;11033;47.490;11.116;2022-09-09T00:40:50;5.93;;;2.20;;
21741;SDS011;11033;47.490;11.116;2022-09-09T00:43:28;4.03;;;2.30;;
21741;SDS011;11033;47.490;11.116;2022-09-09T00:46:46;4.72;;;2.20;;
21741;SDS011;11033;47.490;11.116;2022-09-09T00:49:04;5.05;;;1.95;;
21741;SDS011;11033;47.490;11.116;2022-09-09T00:51:52;2.65;;;2.28;;
21741;SDS011;11033;47.490;11.116;2022-09-09T00:54:31;2.90;;;2.28;;
21741;SDS011;11033;47.490;11.116;2022-09-09T01:11:36;4.93;;;2.13;;
21741;SDS011;11033;47.490;11.116;2022-09-09T01:17:08;5.50;;;2.53;;
21741;SDS011;11033;47.490;11.116;2022-09-09T01:27:37;2.22;;;2.03;;
21741;SDS011;11033;47.490;11.116;2022-09-09T01:30:08;3.38;;;2.45;;
21741;SDS011;11033;47.490;11.116;2022-09-09T01:35:04;1.75;;;1.63;;
21741;SDS011;11033;47.490;11.116;2022-09-09T01:37:55;1.80;;;1.70;;
21741;SDS011;11033;47.490;11.116;2022-09-09T01:40:20;3.17;;;2.35;;
21741;SDS011;11033;47.490;11.116;2022-09-09T01:42:46;7.10;;;2.50;;
21741;SDS011;11033;47.490;11.116;2022-09-09T01:45:11;4.20;;;2.10;;
21741;SDS011;11033;47.490;11.116;2022-09-09T01:47:36;2.95;;;2.40;;
21741;SDS011;11033;47.490;11.116;2022-09-09T01:50:02;2.13;;;1.50;;
21741;SDS011;11033;47.490;11.116;2022-09-09T01:52:28;4.32;;;1.85;;
21741;SDS011;11033;47.490;11.116;2022-09-09T01:54:55;1.95;;;1.80;;
21741;SDS011;11033;47.490;11.116;2022-09-09T01:57:33;2.38;;;1.70;;
21741;SDS011;11033;47.490;11.116;2022-09-09T02:00:23;3.05;;;1.70;;
21741;SDS011;11033;47.490;11.116;2022-09-09T02:02:53;3.25;;;2.10;;
21741;SDS011;11033;47.490;11.116;2022-09-09T02:05:41;2.05;;;1.85;;
21741;SDS011;11033;47.490;11.116;2022-09-09T02:08:15;1.65;;;1.55;;
21741;SDS011;11033;47.490;11.116;2022-09-09T02:10:48;2.05;;;1.80;;
21741;SDS011;11033;47.490;11.116;2022-09-09T02:13:15;2.10;;;1.77;;
21741;SDS011;11033;47.490;11.116;2022-09-09T02:18:21;2.03;;;1.85;;
21741;SDS011;11033;47.490;11.116;2022-09-09T02:20:53;1.73;;;1.55;;
21741;SDS011;11033;47.490;11.116;2022-09-09T02:23:19;4.55;;;2.00;;
21741;SDS011;11033;47.490;11.116;2022-09-09T02:25:45;2.90;;;2.25;;
21741;SDS011;11033;47.490;11.116;2022-09-09T02:28:12;2.65;;;1.90;;
21741;SDS011;11033;47.490;11.116;2022-09-09T02:30:40;2.97;;;1.83;;
21741;SDS011;11033;47.490;11.116;2022-09-09T02:33:07;3.60;;;2.10;;
21741;SDS011;11033;47.490;11.116;2022-09-09T02:35:37;4.67;;;1.80;;
21741;SDS011;11033;47.490;11.116;2022-09-09T02:38:06;4.35;;;2.10;;
21741;SDS011;11033;47.490;11.116;2022-09-09T02:43:00;2.53;;;1.92;;
21741;SDS011;11033;47.490;11.116;2022-09-09T02:45:30;3.35;;;2.10;;
21741;SDS011;11033;47.490;11.116;2022-09-09T02:50:48;2.30;;;1.88;;
21741;SDS011;11033;47.490;11.116;2022-09-09T02:56:16;2.35;;;1.88;;
21741;SDS011;11033;47.490;11.116;2022-09-09T02:58:45;3.45;;;1.50;;
21741;SDS011;11033;47.490;11.116;2022-09-09T03:01:11;2.17;;;2.05;;
21741;SDS011;11033;47.490;11.116;2022-09-09T03:03:37;2.78;;;2.38;;
21741;SDS011;11033;47.490;11.116;2022-09-09T03:06:03;1.80;;;1.48;;
21741;SDS011;11033;47.490;11.116;2022-09-09T03:08:28;2.38;;;2.17;;
21741;SDS011;11033;47.490;11.116;2022-09-09T03:10:54;2.40;;;1.70;;
21741;SDS011;11033;47.490;11.116;2022-09-09T03:13:20;1.75;;;1.65;;
21741;SDS011;11033;47.490;11.116;2022-09-09T03:15:45;1.88;;;1.67;;
21741;SDS011;11033;47.490;11.116;2022-09-09T03:18:10;1.40;;;1.30;;
21741;SDS011;11033;47.490;11.116;2022-09-09T03:20:36;3.13;;;2.33;;
21741;SDS011;11033;47.490;11.116;2022-09-09T03:23:01;1.70;;;1.60;;
21741;SDS011;11033;47.490;11.116;2022-09-09T03:25:27;2.20;;;1.90;;
21741;SDS011;11033;47.490;11.116;2022-09-09T03:27:53;4.35;;;1.98;;
21741;SDS011;11033;47.490;11.116;2022-09-09T03:30:23;2.17;;;1.58;;
21741;SDS011;11033;47.490;11.116;2022-09-09T03:32:49;2.00;;;1.43;;
21741;SDS011;11033;47.490;11.116;2022-09-09T03:35:15;2.08;;;1.90;;
21741;SDS011;11033;47.490;11.116;2022-09-09T03:37:40;1.48;;;1.30;;
21741;SDS011;11033;47.490;11.116;2022-09-09T03:40:06;3.85;;;1.90;;
21741;SDS011;11033;47.490;11.116;2022-09-09T03:42:34;4.72;;;1.80;;
21741;SDS011;11033;47.490;11.116;2022-09-09T03:45:01;2.47;;;1.67;;
21741;SDS011;11033;47.490;11.116;2022-09-09T03:47:31;2.53;;;1.75;;
21741;SDS011;11033;47.490;11.116;2022-09-09T03:49:56;3.80;;;2.10;;
21741;SDS011;11033;47.490;11.116;2022-09-09T03:52:22;4.20;;;2.10;;
21741;SDS011;11033;47.490;11.116;2022-09-09T03:54:50;2.55;;;2.10;;
21741;SDS011;11033;47.490;11.116;2022-09-09T03:57:16;4.00;;;1.88;;
21741;SDS011;11033;47.490;11.116;2022-09-09T03:59:42;3.25;;;2.08;;
21741;SDS011;11033;47.490;11.116;2022-09-09T04:02:07;1.58;;;1.48;;
21741;SDS011;11033;47.490;11.116;2022-09-09T04:04:34;4.47;;;2.03;;
21741;SDS011;11033;47.490;11.116;2022-09-09T04:06:59;1.75;;;1.65;;
21741;SDS011;11033;47.490;11.116;2022-09-09T04:09:24;3.30;;;2.40;;
21741;SDS011;11033;47.490;11.116;2022-09-09T04:11:50;3.03;;;2.17;;
21741;SDS011;11033;47.490;11.116;2022-09-09T04:14:15;5.50;;;2.70;;
21741;SDS011;11033;47.490;11.116;2022-09-09T04:16:41;1.50;;;1.40;;
21741;SDS011;11033;47.490;11.116;2022-09-09T04:19:09;2.63;;;1.90;;
21741;SDS011;11033;47.490;11.116;2022-09-09T04:21:37;2.20;;;2.03;;
21741;SDS011;11033;47.490;11.116;2022-09-09T04:24:04;3.30;;;2.10;;
21741;SDS011;11033;47.490;11.116;2022-09-09T04:26:30;1.90;;;1.73;;
21741;SDS011;11033;47.490;11.116;2022-09-09T04:28:55;2.87;;;1.80;;
21741;SDS011;11033;47.490;11.116;2022-09-09T04:31:21;3.13;;;1.70;;
21741;SDS011;11033;47.490;11.116;2022-09-09T04:33:50;2.30;;;2.10;;
21741;SDS011;11033;47.490;11.116;2022-09-09T04:36:16;2.08;;;1.88;;
21741;SDS011;11033;47.490;11.116;2022-09-09T04:38:43;5.15;;;2.20;;
21741;SDS011;11033;47.490;11.116;2022-09-09T04:41:09;4.10;;;2.65;;
21741;SDS011;11033;47.490;11.116;2022-09-09T04:43:36;3.67;;;2.03;;
21741;SDS011;11033;47.490;11.116;2022-09-09T04:46:02;2.88;;;1.88;;
21741;SDS011;11033;47.490;11.116;2022-09-09T04:48:28;6.25;;;2.38;;
21741;SDS011;11033;47.490;11.116;2022-09-09T04:50:54;1.77;;;1.60;;
21741;SDS011;11033;47.490;11.116;2022-09-09T04:53:20;4.25;;;2.13;;
21741;SDS011;11033;47.490;11.116;2022-09-09T04:55:47;2.30;;;1.85;;
21741;SDS011;11033;47.490;11.116;2022-09-09T04:58:12;2.92;;;1.70;;
21741;SDS011;11033;47.490;11.116;2022-09-09T05:00:38;6.55;;;2.45;;
21741;SDS011;11033;47.490;11.116;2022-09-09T05:03:04;3.70;;;1.80;;
21741;SDS011;11033;47.490;11.116;2022-09-09T05:05:30;3.15;;;1.88;;
21741;SDS011;11033;47.490;11.116;2022-09-09T05:08:06;2.95;;;1.50;;
21741;SDS011;11033;47.490;11.116;2022-09-09T05:10:33;1.45;;;1.35;;
21741;SDS011;11033;47.490;11.116;2022-09-09T05:13:01;1.52;;;1.17;;
21741;SDS011;11033;47.490;11.116;2022-09-09T05:15:26;2.28;;;1.60;;
21741;SDS011;11033;47.490;11.116;2022-09-09T05:17:52;2.95;;;1.70;;
21741;SDS011;11033;47.490;11.116;2022-09-09T05:20:20;2.53;;;1.70;;
21741;SDS011;11033;47.490;11.116;2022-09-09T05:22:46;2.83;;;1.85;;
21741;SDS011;11033;47.490;11.116;2022-09-09T05:25:11;4.20;;;2.22;;
21741;SDS011;11033;47.490;11.116;2022-09-09T05:27:37;2.15;;;1.48;;
21741;SDS011;11033;47.490;11.116;2022-09-09T05:30:02;3.53;;;1.63;;
21741;SDS011;11033;47.490;11.116;2022-09-09T05:32:29;3.03;;;1.30;;
21741;SDS011;11033;47.490;11.116;2022-09-09T05:34:59;1.45;;;1.35;;
21741;SDS011;11033;47.490;11.116;2022-09-09T05:37:24;2.97;;;1.42;;
21741;SDS011;11033;47.490;11.116;2022-09-09T05:39:50;1.30;;;1.17;;
21741;SDS011;11033;47.490;11.116;2022-09-09T05:42:15;2.08;;;1.65;;
21741;SDS011;11033;47.490;11.116;2022-09-09T05:44:40;3.27;;;1.30;;
21741;SDS011;11033;47.490;11.116;2022-09-09T05:47:07;2.47;;;1.33;;
21741;SDS011;11033;47.490;11.116;2022-09-09T05:49:33;1.20;;;1.10;;
21741;SDS011;11033;47.490;11.116;2022-09-09T05:51:58;1.37;;;1.03;;
21741;SDS011;11033;47.490;11.116;2022-09-09T05:54:23;2.67;;;1.23;;
21741;SDS011;11033;47.490;11.116;2022-09-09T05:56:49;2.58;;;1.52;;
21741;SDS011;11033;47.490;11.116;2022-09-09T05:59:15;2.63;;;1.15;;
21741;SDS011;11033;47.490;11.116;2022-09-09T06:01:41;1.88;;;0.93;;
21741;SDS011;11033;47.490;11.116;2022-09-09T06:04:07;3.42;;;1.13;;
21741;SDS011;11033;47.490;11.116;2022-09-09T06:06:34;4.55;;;1.55;;
21741;SDS011;11033;47.490;11.116;2022-09-09T06:09:01;0.90;;;0.90;;
21741;SDS011;11033;47.490;11.116;2022-09-09T06:11:28;4.32;;;1.73;;
21741;SDS011;11033;47.490;11.116;2022-09-09T06:13:59;2.15;;;1.67;;
21741;SDS011;11033;47.490;11.116;2022-09-09T06:16:26;2.33;;;1.60;;
21741;SDS011;11033;47.490;11.116;2022-09-09T06:18:53;2.90;;;1.02;;
21741;SDS011;11033;47.490;11.116;2022-09-09T06:21:23;2.13;;;1.25;;
21741;SDS011;11033;47.490;11.116;2022-09-09T06:23:52;3.10;;;1.38;;
21741;SDS011;11033;47.490;11.116;2022-09-09T06:26:22;3.78;;;1.35;;
21741;SDS011;11033;47.490;11.116;2022-09-09T06:28:50;3.90;;;1.30;;
21741;SDS011;11033;47.490;11.116;2022-09-09T06:31:18;2.25;;;1.30;;
21741;SDS011;11033;47.490;11.116;2022-09-09T06:33:49;2.95;;;1.50;;
21741;SDS011;11033;47.490;11.116;2022-09-09T06:36:17;3.65;;;1.40;;
21741;SDS011;11033;47.490;11.116;2022-09-09T06:38:44;2.67;;;1.50;;
21741;SDS011;11033;47.490;11.116;2022-09-09T06:41:11;1.35;;;1.25;;
21741;SDS011;11033;47.490;11.116;2022-09-09T06:43:38;2.83;;;1.50;;
21741;SDS011;11033;47.490;11.116;2022-09-09T06:46:11;3.55;;;1.52;;
21741;SDS011;11033;47.490;11.116;2022-09-09T06:48:41;1.63;;;1.30;;
21741;SDS011;11033;47.490;11.116;2022-09-09T06:53:35;3.15;;;1.73;;
21741;SDS011;11033;47.490;11.116;2022-09-09T06:56:46;2.78;;;1.55;;
21741;SDS011;11033;47.490;11.116;2022-09-09T06:58:57;4.40;;;1.60;;
21741;SDS011;11033;47.490;11.116;2022-09-09T07:01:26;2.15;;;1.45;;
21741;SDS011;11033;47.490;11.116;2022-09-09T07:03:54;4.68;;;1.75;;
21741;SDS011;11033;47.490;11.116;2022-09-09T07:06:24;3.80;;;1.40;;
21741;SDS011;11033;47.490;11.116;2022-09-09T07:08:52;4.13;;;2.20;;
21741;SDS011;11033;47.490;11.116;2022-09-09T07:11:20;2.03;;;1.23;;
21741;SDS011;11033;47.490;11.116;2022-09-09T07:13:47;2.30;;;1.10;;
21741;SDS011;11033;47.490;11.116;2022-09-09T07:16:15;5.22;;;1.77;;
21741;SDS011;11033;47.490;11.116;2022-09-09T07:18:42;1.90;;;1.10;;
21741;SDS011;11033;47.490;11.116;2022-09-09T07:21:08;5.75;;;1.48;;
21741;SDS011;11033;47.490;11.116;2022-09-09T07:23:35;3.10;;;1.63;;
21741;SDS011;11033;47.490;11.116;2022-09-09T07:26:00;2.08;;;1.30;;
21741;SDS011;11033;47.490;11.116;2022-09-09T07:28:26;5.32;;;3.45;;
21741;SDS011;11033;47.490;11.116;2022-09-09T07:30:56;3.75;;;2.67;;
21741;SDS011;11033;47.490;11.116;2022-09-09T07:33:23;2.75;;;2.20;;
21741;SDS011;11033;47.490;11.116;2022-09-09T07:35:49;3.85;;;2.28;;
21741;SDS011;11033;47.490;11.116;2022-09-09T07:38:14;4.65;;;2.08;;
21741;SDS011;11033;47.490;11.116;2022-09-09T07:40:40;4.88;;;1.70;;
21741;SDS011;11033;47.490;11.116;2022-09-09T07:43:05;4.72;;;1.80;;
21741;SDS011;11033;47.490;11.116;2022-09-09T07:45:31;3.10;;;1.73;;
21741;SDS011;11033;47.490;11.116;2022-09-09T07:47:58;1.80;;;1.65;;
21741;SDS011;11033;47.490;11.116;2022-09-09T07:50:24;1.38;;;1.10;;
21741;SDS011;11033;47.490;11.116;2022-09-09T07:52:50;4.60;;;1.42;;
21741;SDS011;11033;47.490;11.116;2022-09-09T07:55:16;3.15;;;1.88;;
21741;SDS011;11033;47.490;11.116;2022-09-09T07:57:41;2.10;;;1.50;;
21741;SDS011;11033;47.490;11.116;2022-09-09T08:00:07;2.67;;;1.30;;
21741;SDS011;11033;47.490;11.116;2022-09-09T08:02:32;2.78;;;1.52;;
21741;SDS011;11033;47.490;11.116;2022-09-09T08:04:58;2.07;;;1.20;;
21741;SDS011;11033;47.490;11.116;2022-09-09T08:07:23;4.78;;;1.80;;
21741;SDS011;11033;47.490;11.116;2022-09-09T08:09:49;0.90;;;0.90;;
21741;SDS011;11033;47.490;11.116;2022-09-09T08:12:14;2.60;;;0.98;;
21741;SDS011;11033;47.490;11.116;2022-09-09T08:14:40;1.50;;;1.40;;
21741;SDS011;11033;47.490;11.116;2022-09-09T08:17:05;1.00;;;1.00;;
21741;SDS011;11033;47.490;11.116;2022-09-09T08:19:31;7.97;;;1.27;;
21741;SDS011;11033;47.490;11.116;2022-09-09T08:21:59;1.52;;;1.05;;
21741;SDS011;11033;47.490;11.116;2022-09-09T08:24:26;1.38;;;1.27;;
21741;SDS011;11033;47.490;11.116;2022-09-09T08:26:52;2.92;;;1.33;;
21741;SDS011;11033;47.490;11.116;2022-09-09T08:29:17;2.60;;;1.50;;
21741;SDS011;11033;47.490;11.116;2022-09-09T08:31:47;3.10;;;1.20;;
21741;SDS011;11033;47.490;11.116;2022-09-09T08:34:14;1.70;;;1.60;;
21741;SDS011;11033;47.490;11.116;2022-09-09T08:36:40;3.33;;;1.88;;
21741;SDS011;11033;47.490;11.116;2022-09-09T08:39:08;4.97;;;2.30;;
21741;SDS011;11033;47.490;11.116;2022-09-09T08:50:05;3.60;;;1.20;;
21741;SDS011;11033;47.490;11.116;2022-09-09T08:52:43;1.23;;;1.10;;
21741;SDS011;11033;47.490;11.116;2022-09-09T08:55:20;3.13;;;1.30;;
21741;SDS011;11033;47.490;11.116;2022-09-09T09:09:06;2.58;;;1.38;;
21741;SDS011;11033;47.490;11.116;2022-09-09T09:14:26;1.38;;;1.08;;
21741;SDS011;11033;47.490;11.116;2022-09-09T09:16:59;1.25;;;1.10;;
21741;SDS011;11033;47.490;11.116;2022-09-09T09:19:28;1.55;;;1.45;;
21741;SDS011;11033;47.490;11.116;2022-09-09T09:27:16;3.88;;;1.88;;
21741;SDS011;11033;47.490;11.116;2022-09-09T09:29:47;2.65;;;1.50;;
21741;SDS011;11033;47.490;11.116;2022-09-09T09:32:16;2.25;;;1.40;;
21741;SDS011;11033;47.490;11.116;2022-09-09T09:34:48;1.65;;;1.52;;
21741;SDS011;11033;47.490;11.116;2022-09-09T09:37:25;2.38;;;1.73;;
21741;SDS011;11033;47.490;11.116;2022-09-09T09:39:53;1.63;;;1.52;;
21741;SDS011;11033;47.490;11.116;2022-09-09T09:42:18;3.17;;;1.58;;
21741;SDS011;11033;47.490;11.116;2022-09-09T09:44:44;2.78;;;1.52;;
21741;SDS011;11033;47.490;11.116;2022-09-09T09:47:13;5.97;;;1.70;;
21741;SDS011;11033;47.490;11.116;2022-09-09T09:49:58;3.28;;;1.30;;
21741;SDS011;11033;47.490;11.116;2022-09-09T09:52:26;1.50;;;1.10;;
21741;SDS011;11033;47.490;11.116;2022-09-09T09:54:57;2.67;;;1.40;;
21741;SDS011;11033;47.490;11.116;2022-09-09T09:57:26;2.05;;;1.63;;
21741;SDS011;11033;47.490;11.116;2022-09-09T10:02:40;8.13;;;1.30;;
21741;SDS011;11033;47.490;11.116;2022-09-09T10:05:19;1.55;;;1.40;;
21741;SDS011;11033;47.490;11.116;2022-09-09T10:07:47;3.00;;;1.60;;
21741;SDS011;11033;47.490;11.116;2022-09-09T10:10:34;1.70;;;1.60;;
21741;SDS011;11033;47.490;11.116;2022-09-09T10:13:17;2.72;;;1.70;;
21741;SDS011;11033;47.490;11.116;2022-09-09T10:19:03;2.25;;;1.80;;
21741;SDS011;11033;47.490;11.116;2022-09-09T10:24:33;4.30;;;1.95;;
21741;SDS011;11033;47.490;11.116;2022-09-09T10:38:39;1.70;;;1.60;;
21741;SDS011;11033;47.490;11.116;2022-09-09T10:41:13;2.75;;;1.88;;
21741;SDS011;11033;47.490;11.116;2022-09-09T10:46:46;2.95;;;1.65;;
21741;SDS011;11033;47.490;11.116;2022-09-09T10:52:40;3.67;;;1.70;;
21741;SDS011;11033;47.490;11.116;2022-09-09T10:55:18;2.08;;;1.70;;
21741;SDS011;11033;47.490;11.116;2022-09-09T10:57:46;2.45;;;1.50;;
21741;SDS011;11033;47.490;11.116;2022-09-09T11:00:15;3.72;;;1.60;;
21741;SDS011;11033;47.490;11.116;2022-09-09T11:02:44;1.73;;;1.63;;
21741;SDS011;11033;47.490;11.116;2022-09-09T11:08:09;1.92;;;1.40;;
21741;SDS011;11033;47.490;11.116;2022-09-09T11:16:41;1.83;;;1.70;;
21741;SDS011;11033;47.490;11.116;2022-09-09T11:19:19;1.38;;;1.27;;
21741;SDS011;11033;47.490;11.116;2022-09-09T11:22:08;2.47;;;1.30;;
21741;SDS011;11033;47.490;11.116;2022-09-09T11:24:39;1.38;;;1.13;;
21741;SDS011;11033;47.490;11.116;2022-09-09T11:27:14;2.08;;;1.10;;
21741;SDS011;11033;47.490;11.116;2022-09-09T11:40:26;2.75;;;2.00;;
21741;SDS011;11033;47.490;11.116;2022-09-09T11:43:03;1.70;;;1.60;;
21741;SDS011;11033;47.490;11.116;2022-09-09T11:48:01;3.55;;;1.98;;
21741;SDS011;11033;47.490;11.116;2022-09-09T11:50:30;3.08;;;1.88;;
21741;SDS011;11033;47.490;11.116;2022-09-09T11:55:38;1.67;;;1.58;;
21741;SDS011;11033;47.490;11.116;2022-09-09T11:58:04;1.85;;;1.73;;
21741;SDS011;11033;47.490;11.116;2022-09-09T12:00:43;2.10;;;1.88;;
21741;SDS011;11033;47.490;11.116;2022-09-09T12:06:11;7.80;;;3.27;;
21741;SDS011;11033;47.490;11.116;2022-09-09T12:08:41;1.92;;;1.83;;
21741;SDS011;11033;47.490;11.116;2022-09-09T12:11:10;5.63;;;2.43;;
21741;SDS011;11033;47.490;11.116;2022-09-09T12:13:36;2.50;;;2.20;;
21741;SDS011;11033;47.490;11.116;2022-09-09T12:16:02;1.98;;;1.80;;
21741;SDS011;11033;47.490;11.116;2022-09-09T12:18:37;1.83;;;1.73;;
21741;SDS011;11033;47.490;11.116;2022-09-09T12:24:03;1.98;;;1.80;;
21741;SDS011;11033;47.490;11.116;2022-09-09T12:26:35;3.35;;;1.70;;
21741;SDS011;11033;47.490;11.116;2022-09-09T12:34:18;1.90;;;1.80;;
21741;SDS011;11033;47.490;11.116;2022-09-09T12:36:49;3.85;;;2.03;;
21741;SDS011;11033;47.490;11.116;2022-09-09T12:39:32;3.22;;;1.48;;
21741;SDS011;11033;47.490;11.116;2022-09-09T12:42:02;2.05;;;1.70;;
21741;SDS011;11033;47.490;11.116;2022-09-09T12:44:28;2.13;;;1.50;;
21741;SDS011;11033;47.490;11.116;2022-09-09T12:46:54;3.17;;;1.50;;
21741;SDS011;11033;47.490;11.116;2022-09-09T12:49:28;3.93;;;1.43;;
21741;SDS011;11033;47.490;11.116;2022-09-09T12:51:59;2.00;;;1.73;;
21741;SDS011;11033;47.490;11.116;2022-09-09T12:54:27;1.85;;;1.58;;
21741;SDS011;11033;47.490;11.116;2022-09-09T12:56:53;1.20;;;1.10;;
21741;SDS011;11033;47.490;11.116;2022-09-09T12:59:25;0.73;;;0.73;;
21741;SDS011;11033;47.490;11.116;2022-09-09T13:01:59;1.77;;;1.20;;
21741;SDS011;11033;47.490;11.116;2022-09-09T13:04:25;2.50;;;0.90;;
21741;SDS011;11033;47.490;11.116;2022-09-09T13:06:51;2.47;;;0.95;;
21741;SDS011;11033;47.490;11.116;2022-09-09T13:09:17;4.65;;;1.30;;
21741;SDS011;11033;47.490;11.116;2022-09-09T13:11:44;1.40;;;1.13;;
21741;SDS011;11033;47.490;11.116;2022-09-09T13:14:21;3.50;;;0.98;;
21741;SDS011;11033;47.490;11.116;2022-09-09T13:16:56;2.40;;;0.80;;
21741;SDS011;11033;47.490;11.116;2022-09-09T13:19:23;2.05;;;0.90;;
21741;SDS011;11033;47.490;11.116;2022-09-09T13:21:52;0.80;;;0.80;;
21741;SDS011;11033;47.490;11.116;2022-09-09T13:24:26;2.00;;;1.20;;
21741;SDS011;11033;47.490;11.116;2022-09-09T13:26:57;1.30;;;1.20;;
21741;SDS011;11033;47.490;11.116;2022-09-09T13:29:25;0.93;;;0.80;;
21741;SDS011;11033;47.490;11.116;2022-09-09T13:31:50;0.73;;;0.73;;
21741;SDS011;11033;47.490;11.116;2022-09-09T13:34:30;2.22;;;1.17;;
21741;SDS011;11033;47.490;11.116;2022-09-09T13:37:06;1.20;;;0.90;;
21741;SDS011;11033;47.490;11.116;2022-09-09T13:39:52;0.77;;;0.77;;
21741;SDS011;11033;47.490;11.116;2022-09-09T13:42:24;1.13;;;1.02;;
21741;SDS011;11033;47.490;11.116;2022-09-09T13:44:51;2.92;;;1.20;;
21741;SDS011;11033;47.490;11.116;2022-09-09T13:47:20;4.20;;;1.10;;
21741;SDS011;11033;47.490;11.116;2022-09-09T13:49:51;2.22;;;1.23;;
21741;SDS011;11033;47.490;11.116;2022-09-09T13:52:17;0.93;;;0.83;;
21741;SDS011;11033;47.490;11.116;2022-09-09T13:54:47;1.05;;;0.80;;
21741;SDS011;11033;47.490;11.116;2022-09-09T13:57:23;1.77;;;1.10;;
21741;SDS011;11033;47.490;11.116;2022-09-09T13:59:50;1.20;;;0.93;;
21741;SDS011;11033;47.490;11.116;2022-09-09T14:02:17;1.20;;;1.10;;
21741;SDS011;11033;47.490;11.116;2022-09-09T14:04:43;1.55;;;1.20;;
21741;SDS011;11033;47.490;11.116;2022-09-09T14:07:13;2.70;;;1.27;;
21741;SDS011;11033;47.490;11.116;2022-09-09T14:09:40;2.58;;;1.10;;
21741;SDS011;11033;47.490;11.116;2022-09-09T14:12:12;0.73;;;0.70;;
21741;SDS011;11033;47.490;11.116;2022-09-09T14:14:39;0.93;;;0.90;;
21741;SDS011;11033;47.490;11.116;2022-09-09T14:17:06;0.90;;;0.80;;
21741;SDS011;11033;47.490;11.116;2022-09-09T14:19:32;0.82;;;0.82;;
21741;SDS011;11033;47.490;11.116;2022-09-09T14:21:57;2.42;;;1.58;;
21741;SDS011;11033;47.490;11.116;2022-09-09T14:24:23;1.27;;;1.08;;
21741;SDS011;11033;47.490;11.116;2022-09-09T14:26:50;0.90;;;0.85;;
21741;SDS011;11033;47.490;11.116;2022-09-09T14:29:15;1.45;;;1.20;;
21741;SDS011;11033;47.490;11.116;2022-09-09T14:31:40;1.03;;;1.00;;
21741;SDS011;11033;47.490;11.116;2022-09-09T14:34:06;1.50;;;1.17;;
21741;SDS011;11033;47.490;11.116;2022-09-09T14:36:31;1.58;;;1.48;;
21741;SDS011;11033;47.490;11.116;2022-09-09T14:38:57;1.20;;;1.10;;
21741;SDS011;11033;47.490;11.116;2022-09-09T14:41:22;1.60;;;1.40;;
21741;SDS011;11033;47.490;11.116;2022-09-09T14:43:48;2.80;;;1.27;;
21741;SDS011;11033;47.490;11.116;2022-09-09T14:46:14;1.60;;;1.50;;
21741;SDS011;11033;47.490;11.116;2022-09-09T14:48:42;1.70;;;1.50;;
21741;SDS011;11033;47.490;11.116;2022-09-09T14:51:09;1.85;;;1.38;;
21741;SDS011;11033;47.490;11.116;2022-09-09T14:53:40;2.85;;;1.65;;
21741;SDS011;11033;47.490;11.116;2022-09-09T14:56:07;1.52;;;1.10;;
21741;SDS011;11033;47.490;11.116;2022-09-09T14:58:35;1.30;;;1.00;;
21741;SDS011;11033;47.490;11.116;2022-09-09T15:01:05;1.30;;;1.08;;
21741;SDS011;11033;47.490;11.116;2022-09-09T15:03:31;1.50;;;1.00;;
21741;SDS011;11033;47.490;11.116;2022-09-09T15:05:56;0.77;;;0.77;;
21741;SDS011;11033;47.490;11.116;2022-09-09T15:08:23;9.02;;;1.50;;
21741;SDS011;11033;47.490;11.116;2022-09-09T15:10:49;2.35;;;1.20;;
21741;SDS011;11033;47.490;11.116;2022-09-09T15:13:15;5.97;;;1.50;;
21741;SDS011;11033;47.490;11.116;2022-09-09T15:15:42;2.55;;;1.75;;
21741;SDS011;11033;47.490;11.116;2022-09-09T15:18:08;1.70;;;1.00;;
21741;SDS011;11033;47.490;11.116;2022-09-09T15:20:33;1.60;;;1.10;;
21741;SDS011;11033;47.490;11.116;2022-09-09T15:22:59;3.35;;;2.15;;
21741;SDS011;11033;47.490;11.116;2022-09-09T15:25:24;2.17;;;1.87;;
21741;SDS011;11033;47.490;11.116;2022-09-09T15:27:50;4.80;;;2.40;;
21741;SDS011;11033;47.490;11.116;2022-09-09T15:30:15;3.27;;;2.10;;
21741;SDS011;11033;47.490;11.116;2022-09-09T15:32:40;2.03;;;1.83;;
21741;SDS011;11033;47.490;11.116;2022-09-09T15:35:06;1.90;;;1.80;;
21741;SDS011;11033;47.490;11.116;2022-09-09T15:37:31;2.20;;;1.73;;
21741;SDS011;11033;47.490;11.116;2022-09-09T15:39:56;1.27;;;0.97;;
21741;SDS011;11033;47.490;11.116;2022-09-09T15:42:23;1.67;;;1.10;;
21741;SDS011;11033;47.490;11.116;2022-09-09T15:44:50;3.30;;;1.00;;
21741;SDS011;11033;47.490;11.116;2022-09-09T15:47:15;1.60;;;1.00;;
21741;SDS011;11033;47.490;11.116;2022-09-09T15:49:41;1.30;;;1.00;;
21741;SDS011;11033;47.490;11.116;2022-09-09T15:52:06;1.40;;;0.90;;
21741;SDS011;11033;47.490;11.116;2022-09-09T15:54:34;1.20;;;1.10;;
21741;SDS011;11033;47.490;11.116;2022-09-09T15:57:01;2.45;;;1.15;;
21741;SDS011;11033;47.490;11.116;2022-09-09T15:59:29;1.02;;;0.93;;
21741;SDS011;11033;47.490;11.116;2022-09-09T16:01:55;3.55;;;1.40;;
21741;SDS011;11033;47.490;11.116;2022-09-09T16:04:22;1.67;;;1.02;;
21741;SDS011;11033;47.490;11.116;2022-09-09T16:06:50;2.33;;;1.10;;
21741;SDS011;11033;47.490;11.116;2022-09-09T16:09:17;2.78;;;1.13;;
21741;SDS011;11033;47.490;11.116;2022-09-09T16:11:43;1.52;;;1.10;;
21741;SDS011;11033;47.490;11.116;2022-09-09T16:14:08;1.30;;;1.15;;
21741;SDS011;11033;47.490;11.116;2022-09-09T16:16:34;2.53;;;1.83;;
21741;SDS011;11033;47.490;11.116;2022-09-09T16:19:02;1.38;;;1.13;;
21741;SDS011;11033;47.490;11.116;2022-09-09T16:21:36;2.05;;;1.27;;
21741;SDS011;11033;47.490;11.116;2022-09-09T16:24:05;1.33;;;1.20;;
21741;SDS011;11033;47.490;11.116;2022-09-09T16:26:32;1.02;;;0.80;;
21741;SDS011;11033;47.490;11.116;2022-09-09T16:28:59;0.70;;;0.70;;
21741;SDS011;11033;47.490;11.116;2022-09-09T16:31:26;2.05;;;1.20;;
21741;SDS011;11033;47.490;11.116;2022-09-09T16:33:52;1.35;;;1.20;;
21741;SDS011;11033;47.490;11.116;2022-09-09T16:36:21;1.67;;;0.87;;
21741;SDS011;11033;47.490;11.116;2022-09-09T16:38:52;1.63;;;1.33;;
21741;SDS011;11033;47.490;11.116;2022-09-09T16:41:19;0.85;;;0.65;;
21741;SDS011;11033;47.490;11.116;2022-09-09T16:43:45;0.97;;;0.67;;
21741;SDS011;11033;47.490;11.116;2022-09-09T16:46:14;2.00;;;0.55;;
21741;SDS011;11033;47.490;11.116;2022-09-09T16:48:41;0.60;;;0.60;;
21741;SDS011;11033;47.490;11.116;2022-09-09T16:51:09;1.20;;;0.80;;
21741;SDS011;11033;47.490;11.116;2022-09-09T16:53:41;1.40;;;0.70;;
21741;SDS011;11033;47.490;11.116;2022-09-09T16:56:08;0.77;;;0.77;;
21741;SDS011;11033;47.490;11.116;2022-09-09T16:58:40;0.95;;;0.80;;
21741;SDS011;11033;47.490;11.116;2022-09-09T17:01:07;2.72;;;0.80;;